createdAt,value
2023-08-06T00:03:34.620Z,98214.50
2023-08-06T00:06:01.678Z,98211.84
2023-08-06T00:08:28.638Z,98213.75
2023-08-06T00:10:56.283Z,98206.13
2023-08-06T00:13:24.772Z,98214.88
2023-08-06T00:15:52.314Z,98201.97
2023-08-06T00:18:19.285Z,98206.50
2023-08-06T00:20:46.129Z,98191.72
2023-08-06T00:26:01.827Z,98199.69
2023-08-06T00:28:31.369Z,98198.56
2023-08-06T00:30:58.499Z,98187.91
2023-08-06T00:33:26.187Z,98196.22
2023-08-06T00:35:54.309Z,98194.31
2023-08-06T00:38:21.210Z,98199.56
2023-08-06T00:40:49.392Z,98194.28
2023-08-06T00:43:16.993Z,98187.41
2023-08-06T00:45:44.843Z,98191.19
2023-08-06T00:48:13.411Z,98197.63
2023-08-06T00:50:40.314Z,98200.28
2023-08-06T00:53:07.641Z,98196.50
2023-08-06T00:55:34.853Z,98193.09
2023-08-06T00:58:02.545Z,98194.56
2023-08-06T01:00:30.187Z,98188.84
2023-08-06T01:02:58.155Z,98177.84
2023-08-06T01:05:25.208Z,98179.72
2023-08-06T01:08:05.067Z,98168.38
2023-08-06T01:10:44.095Z,98170.25
2023-08-06T01:13:34.552Z,98166.06
2023-08-06T01:16:04.575Z,98166.06
2023-08-06T01:18:35.365Z,98168.31
2023-08-06T01:21:02.889Z,98169.06
2023-08-06T01:23:29.981Z,98165.34
2023-08-06T01:26:04.139Z,98158.91
2023-08-06T01:28:57.623Z,98162.25
2023-08-06T01:31:33.093Z,98154.63
2023-08-06T01:34:02.250Z,98144.78
2023-08-06T01:36:29.757Z,98142.88
2023-08-06T01:38:57.432Z,98136.78
2023-08-06T01:41:25.616Z,98133.75
2023-08-06T01:43:52.580Z,98130.34
2023-08-06T01:46:20.413Z,98127.69
2023-08-06T01:48:47.740Z,98117.44
2023-08-06T01:51:15.053Z,98114.03
2023-08-06T01:53:45.086Z,98129.91
2023-08-06T01:56:12.847Z,98115.91
2023-08-06T01:58:39.781Z,98127.69
2023-08-06T02:01:07.118Z,98119.75
2023-08-06T02:03:34.107Z,98111.38
2023-08-06T02:06:01.132Z,98114.72
2023-08-06T02:08:29.441Z,98119.28
2023-08-06T02:10:57.524Z,98107.50
2023-08-06T02:13:24.497Z,98106.03
2023-08-06T02:15:52.485Z,98119.63
2023-08-06T02:18:19.366Z,98108.28
2023-08-06T02:20:57.677Z,98118.88
2023-08-06T02:23:25.812Z,98122.28
2023-08-06T02:26:04.441Z,98108.28
2023-08-06T02:28:32.286Z,98109.38
2023-08-06T02:30:59.952Z,98109.03
2023-08-06T02:33:30.401Z,98106.41
2023-08-06T02:36:03.016Z,98097.31
2023-08-06T02:41:23.526Z,98091.66
2023-08-06T02:43:51.717Z,98083.69
2023-08-06T02:46:18.685Z,98079.94
2023-08-06T02:48:46.238Z,98079.19
2023-08-06T02:51:14.457Z,98076.94
2023-08-06T02:53:43.044Z,98071.63
2023-08-06T02:56:12.418Z,98068.59
2023-08-06T02:58:56.105Z,98075.03
2023-08-06T03:01:57.485Z,98070.50
2023-08-06T03:04:33.452Z,98077.00
2023-08-06T03:07:01.634Z,98070.56
2023-08-06T03:09:37.742Z,98066.88
2023-08-06T03:12:33.466Z,98077.47
2023-08-06T03:15:03.320Z,98081.22
2023-08-06T03:17:32.539Z,98089.94
2023-08-06T03:19:59.426Z,98094.47
2023-08-06T03:22:27.295Z,98082.34
2023-08-06T03:24:54.465Z,98091.81
2023-08-06T03:27:25.586Z,98090.28
2023-08-06T03:29:53.540Z,98083.09
2023-08-06T03:32:23.432Z,98078.97
2023-08-06T03:34:51.119Z,98084.28
2023-08-06T03:37:18.450Z,98075.19
2023-08-06T03:39:45.312Z,98078.28
2023-08-06T03:42:12.254Z,98072.91
2023-08-06T03:44:39.996Z,98073.69
2023-08-06T03:47:08.811Z,98069.97
2023-08-06T03:49:36.524Z,98064.66
2023-08-06T03:52:06.720Z,98068.06
2023-08-06T03:54:34.995Z,98063.91
2023-08-06T03:57:02.696Z,98061.25
2023-08-06T03:59:30.034Z,98054.09
2023-08-06T04:01:57.693Z,98054.81
2023-08-06T04:04:25.414Z,98060.53
2023-08-06T04:06:52.427Z,98051.81
2023-08-06T04:09:22.757Z,98047.28
2023-08-06T04:11:51.116Z,98059.41
2023-08-06T04:14:19.541Z,98054.09
2023-08-06T04:16:46.457Z,98065.13
2023-08-06T04:19:15.498Z,98065.47
2023-08-06T04:21:42.982Z,98061.34
2023-08-06T04:24:11.414Z,98063.59
2023-08-06T04:26:39.529Z,98062.81
2023-08-06T04:29:06.430Z,98054.09
2023-08-06T04:31:34.500Z,98060.13
2023-08-06T04:34:02.201Z,98068.47
2023-08-06T04:36:30.033Z,98055.59
2023-08-06T04:39:00.526Z,98061.66
2023-08-06T04:41:28.523Z,98055.22
2023-08-06T04:43:55.504Z,98054.09
2023-08-06T04:46:23.681Z,98056.03
2023-08-06T04:48:51.105Z,98054.16
2023-08-06T04:51:19.019Z,98051.50
2023-08-06T04:53:46.544Z,98059.09
2023-08-06T04:56:13.517Z,98057.22
2023-08-06T04:58:43.689Z,98057.97
2023-08-06T05:01:10.690Z,98063.31
2023-08-06T05:03:39.016Z,98058.78
2023-08-06T05:06:06.997Z,98046.66
2023-08-06T05:08:36.472Z,98044.78
2023-08-06T05:11:03.510Z,98044.78
2023-08-06T05:16:22.613Z,98048.19
2023-08-06T05:18:49.874Z,98045.19
2023-08-06T05:21:16.743Z,98058.03
2023-08-06T05:23:45.538Z,98057.66
2023-08-06T05:26:12.358Z,98059.56
2023-08-06T05:28:40.045Z,98055.78
2023-08-06T05:31:10.108Z,98049.03
2023-08-06T05:33:36.947Z,98057.38
2023-08-06T05:36:04.211Z,98064.56
2023-08-06T05:38:31.546Z,98055.09
2023-08-06T05:41:01.619Z,98053.56
2023-08-06T05:43:32.120Z,98056.66
2023-08-06T05:45:59.045Z,98052.16
2023-08-06T05:48:27.022Z,98058.97
2023-08-06T05:50:53.957Z,98068.88
2023-08-06T05:53:20.797Z,98064.31
2023-08-06T05:55:49.115Z,98062.09
2023-08-06T05:58:15.983Z,98061.66
2023-08-06T06:00:42.987Z,98065.09
2023-08-06T06:03:11.593Z,98068.16
2023-08-06T06:05:39.573Z,98061.72
2023-08-06T06:08:06.468Z,98070.88
2023-08-06T06:10:35.521Z,98059.91
2023-08-06T06:13:02.575Z,98073.59
2023-08-06T06:15:29.678Z,98078.13
2023-08-06T06:17:56.522Z,98086.47
2023-08-06T06:20:23.464Z,98094.09
2023-08-06T06:22:50.549Z,98094.13
2023-08-06T06:25:20.926Z,98096.41
2023-08-06T06:27:51.546Z,98105.13
2023-08-06T06:30:19.021Z,98091.88
2023-08-06T06:32:45.942Z,98088.09
2023-08-06T06:35:14.676Z,98093.78
2023-08-06T06:37:41.972Z,98096.91
2023-08-06T06:40:09.097Z,98095.72
2023-08-06T06:42:39.725Z,98093.88
2023-08-06T06:45:09.863Z,98087.84
2023-08-06T06:47:36.729Z,98092.03
2023-08-06T06:50:03.757Z,98093.59
2023-08-06T06:52:32.650Z,98082.63
2023-08-06T06:54:59.986Z,98079.97
2023-08-06T06:57:27.010Z,98074.31
2023-08-06T06:59:53.874Z,98073.19
2023-08-06T07:02:20.822Z,98081.53
2023-08-06T07:04:48.268Z,98086.50
2023-08-06T07:07:15.104Z,98092.19
2023-08-06T07:09:42.048Z,98099.41
2023-08-06T07:12:09.074Z,98103.22
2023-08-06T07:14:35.982Z,98098.66
2023-08-06T07:17:05.142Z,98092.63
2023-08-06T07:19:32.048Z,98100.59
2023-08-06T07:21:58.950Z,98076.72
2023-08-06T07:24:25.952Z,98072.59
2023-08-06T07:26:52.846Z,98077.50
2023-08-06T07:29:19.659Z,98082.47
2023-08-06T07:31:47.641Z,98082.13
2023-08-06T07:34:14.506Z,98099.63
2023-08-06T07:36:41.486Z,98103.81
2023-08-06T07:39:08.321Z,98102.31
2023-08-06T07:41:36.523Z,98101.59
2023-08-06T07:44:03.449Z,98099.28
2023-08-06T07:46:30.314Z,98098.13
2023-08-06T07:48:57.399Z,98091.28
2023-08-06T07:51:24.351Z,98088.63
2023-08-06T07:53:51.183Z,98079.94
2023-08-06T07:56:18.073Z,98070.41
2023-08-06T07:58:45.054Z,98062.47
2023-08-06T08:01:11.877Z,98056.44
2023-08-06T08:06:29.968Z,98067.53
2023-08-06T08:08:56.753Z,98057.59
2023-08-06T08:11:23.611Z,98068.22
2023-08-06T08:13:50.566Z,98066.28
2023-08-06T08:16:17.581Z,98058.72
2023-08-06T08:18:44.625Z,98057.97
2023-08-06T08:21:11.449Z,98056.13
2023-08-06T08:23:38.427Z,98050.44
2023-08-06T08:26:05.346Z,98042.47
2023-08-06T08:28:32.197Z,98052.31
2023-08-06T08:30:59.105Z,98051.88
2023-08-06T08:33:26.060Z,98048.50
2023-08-06T08:35:53.030Z,98047.00
2023-08-06T08:38:19.818Z,98046.59
2023-08-06T08:40:48.893Z,98053.06
2023-08-06T08:43:17.030Z,98049.97
2023-08-06T08:45:45.591Z,98056.84
2023-08-06T08:48:13.772Z,98054.22
2023-08-06T08:50:41.324Z,98053.91
2023-08-06T08:53:09.869Z,98055.09
2023-08-06T08:55:38.417Z,98066.06
2023-08-06T08:58:05.243Z,98067.63
2023-08-06T09:00:33.244Z,98075.91
2023-08-06T09:03:00.296Z,98067.13
2023-08-06T09:05:30.565Z,98071.63
2023-08-06T09:08:07.731Z,98073.13
2023-08-06T09:10:35.157Z,98076.53
2023-08-06T09:13:02.156Z,98095.06
2023-08-06T09:15:29.938Z,98090.91
2023-08-06T09:17:57.278Z,98099.63
2023-08-06T09:20:25.132Z,98098.50
2023-08-06T09:22:54.682Z,98104.53
2023-08-06T09:25:24.762Z,98107.13
2023-08-06T09:27:52.807Z,98109.72
2023-08-06T09:30:36.711Z,98108.56
2023-08-06T09:33:03.837Z,98113.31
2023-08-06T09:35:32.799Z,98114.31
2023-08-06T09:38:10.181Z,98107.78
2023-08-06T09:40:38.430Z,98112.28
2023-08-06T09:43:06.623Z,98109.94
2023-08-06T09:45:36.116Z,98109.22
2023-08-06T09:48:10.565Z,98108.78
2023-08-06T09:50:38.937Z,98106.06
2023-08-06T09:53:07.333Z,98110.97
2023-08-06T09:55:35.293Z,98122.34
2023-08-06T09:58:02.552Z,98120.38
2023-08-06T10:00:33.222Z,98125.16
2023-08-06T10:03:09.369Z,98130.72
2023-08-06T10:05:38.406Z,98119.66
2023-08-06T10:08:07.547Z,98109.75
2023-08-06T10:10:36.299Z,98128.00
2023-08-06T10:13:07.608Z,98137.47
2023-08-06T10:15:35.590Z,98128.13
2023-08-06T10:18:03.624Z,98129.28
2023-08-06T10:20:37.720Z,98136.16
2023-08-06T10:23:07.717Z,98131.56
2023-08-06T10:25:36.078Z,98144.41
2023-08-06T10:28:10.668Z,98133.41
2023-08-06T10:30:44.543Z,98129.31
2023-08-06T10:33:11.468Z,98130.50
2023-08-06T10:35:49.790Z,98139.69
2023-08-06T10:38:23.697Z,98148.50
2023-08-06T10:43:48.738Z,98151.63
2023-08-06T10:46:31.816Z,98150.81
2023-08-06T10:48:59.776Z,98151.19
2023-08-06T10:51:26.788Z,98149.97
2023-08-06T10:53:54.769Z,98146.22
2023-08-06T10:56:25.329Z,98152.31
2023-08-06T10:58:58.118Z,98141.75
2023-08-06T11:01:25.870Z,98143.00
2023-08-06T11:03:53.249Z,98148.78
2023-08-06T11:06:23.773Z,98145.47
2023-08-06T11:08:55.414Z,98146.34
2023-08-06T11:11:24.593Z,98154.00
2023-08-06T11:13:52.804Z,98152.16
2023-08-06T11:16:21.861Z,98154.06
2023-08-06T11:18:50.840Z,98155.22
2023-08-06T11:21:21.466Z,98163.56
2023-08-06T11:23:48.728Z,98153.66
2023-08-06T11:26:20.826Z,98158.16
2023-08-06T11:28:48.306Z,98150.56
2023-08-06T11:31:24.039Z,98160.78
2023-08-06T11:33:52.366Z,98152.41
2023-08-06T11:36:36.778Z,98158.47
2023-08-06T11:39:04.618Z,98162.25
2023-08-06T11:41:33.589Z,98166.78
2023-08-06T11:44:02.760Z,98171.34
2023-08-06T11:46:29.972Z,98163.38
2023-08-06T11:48:57.986Z,98175.47
2023-08-06T11:51:29.423Z,98177.38
2023-08-06T11:53:58.119Z,98177.69
2023-08-06T11:56:29.408Z,98175.41
2023-08-06T11:58:57.733Z,98177.25
2023-08-06T12:01:24.911Z,98177.19
2023-08-06T12:03:51.812Z,98173.72
2023-08-06T12:06:18.583Z,98185.44
2023-08-06T12:08:45.918Z,98183.22
2023-08-06T12:11:12.734Z,98176.38
2023-08-06T12:16:30.156Z,98173.78
2023-08-06T12:18:56.939Z,98181.75
2023-08-06T12:21:27.258Z,98173.78
2023-08-06T12:23:54.813Z,98190.50
2023-08-06T12:26:22.217Z,98187.44
2023-08-06T12:28:48.963Z,98187.84
2023-08-06T12:31:17.760Z,98190.88
2023-08-06T12:33:45.677Z,98191.38
2023-08-06T12:36:12.472Z,98195.47
2023-08-06T12:38:40.771Z,98188.38
2023-08-06T12:41:07.683Z,98199.44
2023-08-06T12:43:34.558Z,98192.63
2023-08-06T12:46:03.937Z,98188.47
2023-08-06T12:48:34.254Z,98188.13
2023-08-06T12:51:01.227Z,98190.44
2023-08-06T12:53:28.093Z,98193.50
2023-08-06T12:55:55.194Z,98200.00
2023-08-06T12:58:22.426Z,98203.44
2023-08-06T13:00:49.423Z,98207.66
2023-08-06T13:03:17.646Z,98201.28
2023-08-06T13:05:44.927Z,98196.38
2023-08-06T13:08:12.324Z,98194.94
2023-08-06T13:10:40.892Z,98199.91
2023-08-06T13:13:08.760Z,98194.31
2023-08-06T13:15:36.000Z,98195.09
2023-08-06T13:18:03.817Z,98198.22
2023-08-06T13:20:34.891Z,98198.28
2023-08-06T13:23:01.686Z,98199.47
2023-08-06T13:25:29.486Z,98198.03
2023-08-06T13:27:56.892Z,98203.38
2023-08-06T13:30:24.180Z,98202.63
2023-08-06T13:35:43.778Z,98207.66
2023-08-06T13:38:14.486Z,98207.69
2023-08-06T13:40:41.585Z,98213.09
2023-08-06T13:43:08.557Z,98209.31
2023-08-06T13:45:35.610Z,98204.03
2023-08-06T13:50:57.799Z,98229.97
2023-08-06T13:53:25.690Z,98217.13
2023-08-06T13:55:53.870Z,98223.97
2023-08-06T13:58:21.017Z,98226.31
2023-08-06T14:00:48.805Z,98236.59
2023-08-06T14:03:16.112Z,98224.84
2023-08-06T14:05:42.993Z,98231.38
2023-08-06T14:08:10.219Z,98225.72
2023-08-06T14:10:42.897Z,98225.72
2023-08-06T14:13:11.412Z,98219.66
2023-08-06T14:15:39.051Z,98238.69
2023-08-06T14:18:06.935Z,98238.31
2023-08-06T14:20:34.402Z,98235.28
2023-08-06T14:23:01.593Z,98235.63
2023-08-06T14:25:29.827Z,98233.34
2023-08-06T14:27:57.058Z,98232.56
2023-08-06T14:30:24.132Z,98226.44
2023-08-06T14:32:51.687Z,98220.31
2023-08-06T14:35:18.548Z,98237.78
2023-08-06T14:37:50.822Z,98236.66
2023-08-06T14:40:17.746Z,98242.75
2023-08-06T14:42:44.921Z,98253.03
2023-08-06T14:45:14.028Z,98228.72
2023-08-06T14:47:42.824Z,98254.16
2023-08-06T14:50:10.366Z,98250.72
2023-08-06T14:52:37.624Z,98257.56
2023-08-06T14:55:07.384Z,98268.22
2023-08-06T14:57:35.327Z,98258.72
2023-08-06T15:00:02.425Z,98269.75
2023-08-06T15:02:31.443Z,98277.31
2023-08-06T15:04:58.902Z,98273.13
2023-08-06T15:07:26.351Z,98269.66
2023-08-06T15:10:14.975Z,98277.19
2023-08-06T15:12:42.904Z,98287.44
2023-08-06T15:15:10.479Z,98274.09
2023-08-06T15:17:38.884Z,98268.38
2023-08-06T15:20:06.352Z,98274.03
2023-08-06T15:22:35.865Z,98267.59
2023-08-06T15:25:03.353Z,98254.31
2023-08-06T15:27:31.366Z,98273.72
2023-08-06T15:29:58.500Z,98266.16
2023-08-06T15:32:25.886Z,98267.72
2023-08-06T15:34:53.391Z,98259.00
2023-08-06T15:37:23.742Z,98278.03
2023-08-06T15:39:51.124Z,98277.28
2023-08-06T15:42:45.912Z,98273.19
2023-08-06T15:45:14.635Z,98254.97
2023-08-06T15:47:42.724Z,98265.31
2023-08-06T15:50:10.576Z,98261.56
2023-08-06T15:52:38.744Z,98272.25
2023-08-06T15:55:07.056Z,98274.88
2023-08-06T15:57:36.067Z,98279.81
2023-08-06T16:00:05.128Z,98274.81
2023-08-06T16:02:41.666Z,98286.59
2023-08-06T16:05:08.942Z,98279.63
2023-08-06T16:07:36.126Z,98300.53
2023-08-06T16:12:57.190Z,98297.09
2023-08-06T16:15:24.091Z,98286.41
2023-08-06T16:17:52.673Z,98312.22
2023-08-06T16:20:19.866Z,98297.72
2023-08-06T16:22:47.254Z,98294.63
2023-08-06T16:25:14.533Z,98302.94
2023-08-06T16:27:41.920Z,98308.63
2023-08-06T16:30:10.308Z,98302.47
2023-08-06T16:32:37.883Z,98307.38
2023-08-06T16:35:06.996Z,98300.50
2023-08-06T16:37:34.067Z,98306.91
2023-08-06T16:40:01.671Z,98316.00
2023-08-06T16:42:30.984Z,98326.56
2023-08-06T16:44:59.014Z,98319.69
2023-08-06T16:47:26.185Z,98321.88
2023-08-06T16:49:54.661Z,98323.75
2023-08-06T16:52:21.900Z,98343.44
2023-08-06T16:54:50.309Z,98338.09
2023-08-06T16:57:18.861Z,98338.09
2023-08-06T16:59:46.024Z,98340.75
2023-08-06T17:02:14.211Z,98346.41
2023-08-06T17:04:41.402Z,98354.78
2023-08-06T17:07:08.712Z,98360.09
2023-08-06T17:09:37.963Z,98355.53
2023-08-06T17:12:06.072Z,98365.03
2023-08-06T17:14:33.484Z,98362.28
2023-08-06T17:17:04.264Z,98367.56
2023-08-06T17:19:31.535Z,98365.22
2023-08-06T17:21:59.975Z,98371.63
2023-08-06T17:24:27.560Z,98370.50
2023-08-06T17:26:58.821Z,98370.84
2023-08-06T17:29:27.441Z,98371.19
2023-08-06T17:31:54.997Z,98382.16
2023-08-06T17:34:23.032Z,98378.75
2023-08-06T17:36:50.273Z,98387.84
2023-08-06T17:39:17.047Z,98379.13
2023-08-06T17:41:47.931Z,98388.16
2023-08-06T17:44:15.942Z,98391.59
2023-08-06T17:46:44.128Z,98402.50
2023-08-06T17:49:11.476Z,98408.19
2023-08-06T17:51:38.905Z,98384.63
2023-08-06T17:54:06.037Z,98386.13
2023-08-06T17:56:35.514Z,98401.28
2023-08-06T17:59:03.044Z,98410.34
2023-08-06T18:01:30.464Z,98406.53
2023-08-06T18:03:57.549Z,98405.00
2023-08-06T18:06:24.386Z,98424.28
2023-08-06T18:08:53.096Z,98410.25
2023-08-06T18:11:20.379Z,98414.78
2023-08-06T18:13:48.255Z,98410.69
2023-08-06T18:16:16.094Z,98423.94
2023-08-06T18:18:43.329Z,98430.38
2023-08-06T18:21:11.732Z,98423.94
2023-08-06T18:23:39.191Z,98416.63
2023-08-06T18:26:06.708Z,98432.94
2023-08-06T18:28:33.841Z,98424.84
2023-08-06T18:31:01.521Z,98438.78
2023-08-06T18:33:29.068Z,98438.00
2023-08-06T18:35:56.185Z,98430.81
2023-08-06T18:38:23.010Z,98453.88
2023-08-06T18:41:01.088Z,98437.94
2023-08-06T18:43:29.028Z,98454.97
2023-08-06T18:45:59.666Z,98467.97
2023-08-06T18:48:27.168Z,98447.06
2023-08-06T18:50:55.574Z,98463.34
2023-08-06T18:53:22.675Z,98454.63
2023-08-06T18:58:43.119Z,98458.31
2023-08-06T19:01:10.276Z,98472.25
2023-08-06T19:03:38.122Z,98482.75
2023-08-06T19:06:06.296Z,98464.91
2023-08-06T19:08:34.149Z,98463.59
2023-08-06T19:11:01.165Z,98475.97
2023-08-06T19:13:30.266Z,98456.50
2023-08-06T19:15:58.381Z,98480.56
2023-08-06T19:18:26.074Z,98490.75
2023-08-06T19:20:59.086Z,98481.56
2023-08-06T19:23:28.719Z,98478.06
2023-08-06T19:25:56.574Z,98488.75
2023-08-06T19:28:23.642Z,98489.44
2023-08-06T19:30:51.228Z,98508.25
2023-08-06T19:33:18.886Z,98508.97
2023-08-06T19:35:52.386Z,98485.81
2023-08-06T19:38:24.734Z,98495.22
2023-08-06T19:41:02.498Z,98485.72
2023-08-06T19:43:30.896Z,98484.19
2023-08-06T19:45:59.438Z,98505.44
2023-08-06T19:48:27.019Z,98508.81
2023-08-06T19:50:55.641Z,98491.28
2023-08-06T19:53:25.117Z,98488.56
2023-08-06T19:55:52.615Z,98502.50
2023-08-06T19:58:19.518Z,98489.69
2023-08-06T20:00:49.105Z,98499.59
2023-08-06T20:03:41.884Z,98493.09
2023-08-06T20:06:10.113Z,98487.03
2023-08-06T20:08:37.970Z,98506.28
2023-08-06T20:11:05.870Z,98490.66
2023-08-06T20:13:35.134Z,98485.69
2023-08-06T20:16:02.723Z,98480.06
2023-08-06T20:18:31.094Z,98489.03
2023-08-06T20:20:58.859Z,98474.63
2023-08-06T20:23:27.909Z,98492.03
2023-08-06T20:25:54.993Z,98492.41
2023-08-06T20:28:22.162Z,98480.59
2023-08-06T20:30:50.071Z,98481.72
2023-08-06T20:33:17.671Z,98480.94
2023-08-06T20:35:46.158Z,98484.28
2023-08-06T20:38:14.989Z,98479.31
2023-08-06T20:40:43.438Z,98482.31
2023-08-06T20:43:11.373Z,98484.28
2023-08-06T20:45:38.876Z,98479.75
2023-08-06T20:48:06.161Z,98489.50
2023-08-06T20:50:34.413Z,98490.19
2023-08-06T20:53:01.539Z,98486.00
2023-08-06T20:55:30.232Z,98481.38
2023-08-06T20:57:57.060Z,98481.75
2023-08-06T21:00:24.102Z,98488.56
2023-08-06T21:02:51.138Z,98494.53
2023-08-06T21:05:18.097Z,98493.00
2023-08-06T21:07:44.966Z,98492.59
2023-08-06T21:10:14.179Z,98477.81
2023-08-06T21:12:41.014Z,98501.97
2023-08-06T21:15:09.291Z,98511.47
2023-08-06T21:17:36.215Z,98516.16
2023-08-06T21:20:03.562Z,98513.88
2023-08-06T21:22:32.168Z,98518.91
2023-08-06T21:24:59.241Z,98510.88
2023-08-06T21:27:26.066Z,98515.13
2023-08-06T21:29:53.191Z,98526.16
2023-08-06T21:32:20.068Z,98527.59
2023-08-06T21:34:47.187Z,98545.03
2023-08-06T21:37:14.134Z,98513.69
2023-08-06T21:39:40.982Z,98529.25
2023-08-06T21:42:07.836Z,98536.41
2023-08-06T21:44:35.226Z,98535.22
2023-08-06T21:47:02.005Z,98540.09
2023-08-06T21:49:29.025Z,98541.28
2023-08-06T21:51:56.077Z,98552.22
2023-08-06T21:54:24.123Z,98543.50
2023-08-06T21:56:51.197Z,98542.28
2023-08-06T21:59:19.634Z,98538.13
2023-08-06T22:01:46.459Z,98570.75
2023-08-06T22:04:13.337Z,98558.63
2023-08-06T22:06:40.799Z,98550.31
2023-08-06T22:09:07.769Z,98553.69
2023-08-06T22:11:34.701Z,98550.25
2023-08-06T22:14:01.493Z,98534.34
2023-08-06T22:16:31.748Z,98547.50
2023-08-06T22:18:58.580Z,98554.09
2023-08-06T22:21:29.149Z,98543.16
2023-08-06T22:23:56.050Z,98541.53
2023-08-06T22:26:23.186Z,98537.63
2023-08-06T22:29:00.612Z,98546.66
2023-08-06T22:31:29.073Z,98539.84
2023-08-06T22:33:56.066Z,98528.38
2023-08-06T22:36:23.045Z,98525.38
2023-08-06T22:38:50.023Z,98529.50
2023-08-06T22:41:16.845Z,98522.56
2023-08-06T22:43:43.734Z,98516.16
2023-08-06T22:46:10.546Z,98525.19
2023-08-06T22:48:38.313Z,98514.59
2023-08-06T22:51:05.138Z,98514.28
2023-08-06T22:53:32.656Z,98512.81
2023-08-06T22:56:09.054Z,98502.50
2023-08-06T22:58:36.991Z,98513.75
2023-08-06T23:01:04.079Z,98508.47
2023-08-06T23:03:31.859Z,98508.47
2023-08-06T23:06:00.224Z,98488.22
2023-08-06T23:08:30.641Z,98505.91
2023-08-06T23:10:57.785Z,98498.31
2023-08-06T23:13:24.684Z,98480.88
2023-08-06T23:15:51.751Z,98497.28
2023-08-06T23:18:22.280Z,98497.63
2023-08-06T23:20:49.746Z,98499.41
2023-08-06T23:23:16.669Z,98485.84
2023-08-06T23:25:44.627Z,98496.34
2023-08-06T23:28:11.446Z,98486.88
2023-08-06T23:30:44.314Z,98508.06
2023-08-06T23:33:12.654Z,98490.63
2023-08-06T23:35:39.431Z,98503.84
2023-08-06T23:38:06.709Z,98507.03
2023-08-06T23:40:33.491Z,98511.72
2023-08-06T23:43:02.916Z,98513.25
2023-08-06T23:45:29.969Z,98504.44
2023-08-06T23:47:57.677Z,98535.78
2023-08-06T23:50:24.619Z,98524.78
2023-08-06T23:52:51.632Z,98540.66
2023-08-06T23:55:18.411Z,98519.50
2023-08-06T23:57:45.283Z,98533.16
